sensor_id;sensor_type;location;lat;lon;timestamp;temperature;humidity
71733;DHT22;65965;43.502;3.716;2022-12-11T00:02:00;-0.90;69.00
71733;DHT22;65965;43.502;3.716;2022-12-11T00:04:29;-1.40;70.90
71733;DHT22;65965;43.502;3.716;2022-12-11T00:06:55;-1.30;70.00
71733;DHT22;65965;43.502;3.716;2022-12-11T00:09:20;-1.30;69.00
71733;DHT22;65965;43.502;3.716;2022-12-11T00:11:47;-1.30;69.90
71733;DHT22;65965;43.502;3.716;2022-12-11T00:14:13;-1.50;76.20
71733;DHT22;65965;43.502;3.716;2022-12-11T00:16:40;-1.70;73.80
71733;DHT22;65965;43.502;3.716;2022-12-11T00:19:06;-1.70;73.70
71733;DHT22;65965;43.502;3.716;2022-12-11T00:21:32;-1.50;70.50
71733;DHT22;65965;43.502;3.716;2022-12-11T00:23:57;-1.30;70.50
71733;DHT22;65965;43.502;3.716;2022-12-11T00:26:23;-1.30;73.50
71733;DHT22;65965;43.502;3.716;2022-12-11T00:28:53;-1.00;67.80
71733;DHT22;65965;43.502;3.716;2022-12-11T00:31:19;-1.00;69.10
71733;DHT22;65965;43.502;3.716;2022-12-11T00:33:45;-1.10;69.60
71733;DHT22;65965;43.502;3.716;2022-12-11T00:36:18;-1.30;70.90
71733;DHT22;65965;43.502;3.716;2022-12-11T00:38:45;-1.00;72.60
71733;DHT22;65965;43.502;3.716;2022-12-11T00:41:11;-0.80;68.20
71733;DHT22;65965;43.502;3.716;2022-12-11T00:43:37;-0.70;69.10
71733;DHT22;65965;43.502;3.716;2022-12-11T00:46:03;-0.80;72.50
71733;DHT22;65965;43.502;3.716;2022-12-11T00:48:29;-0.80;71.40
71733;DHT22;65965;43.502;3.716;2022-12-11T00:50:55;-0.90;71.10
71733;DHT22;65965;43.502;3.716;2022-12-11T00:53:21;-1.00;71.10
71733;DHT22;65965;43.502;3.716;2022-12-11T00:55:47;-1.20;71.30
71733;DHT22;65965;43.502;3.716;2022-12-11T00:58:12;-1.10;72.50
71733;DHT22;65965;43.502;3.716;2022-12-11T01:00:40;-1.00;70.70
71733;DHT22;65965;43.502;3.716;2022-12-11T01:03:06;-1.00;70.40
71733;DHT22;65965;43.502;3.716;2022-12-11T01:05:32;-0.90;68.60
71733;DHT22;65965;43.502;3.716;2022-12-11T01:07:58;-1.20;70.50
71733;DHT22;65965;43.502;3.716;2022-12-11T01:10:25;-1.20;70.30
71733;DHT22;65965;43.502;3.716;2022-12-11T01:12:52;-1.10;70.60
71733;DHT22;65965;43.502;3.716;2022-12-11T01:15:23;-0.80;70.00
71733;DHT22;65965;43.502;3.716;2022-12-11T01:17:49;-1.10;70.00
71733;DHT22;65965;43.502;3.716;2022-12-11T01:20:19;-1.50;72.30
71733;DHT22;65965;43.502;3.716;2022-12-11T01:22:45;-1.80;74.40
71733;DHT22;65965;43.502;3.716;2022-12-11T01:25:11;-1.80;74.70
71733;DHT22;65965;43.502;3.716;2022-12-11T01:27:38;-1.70;74.70
71733;DHT22;65965;43.502;3.716;2022-12-11T01:30:06;-1.60;75.30
71733;DHT22;65965;43.502;3.716;2022-12-11T01:32:33;-1.50;74.70
71733;DHT22;65965;43.502;3.716;2022-12-11T01:34:59;-1.70;77.20
71733;DHT22;65965;43.502;3.716;2022-12-11T01:37:25;-1.40;71.20
71733;DHT22;65965;43.502;3.716;2022-12-11T01:39:51;-1.40;72.10
71733;DHT22;65965;43.502;3.716;2022-12-11T01:42:18;-1.40;71.00
71733;DHT22;65965;43.502;3.716;2022-12-11T01:47:10;-1.40;72.10
71733;DHT22;65965;43.502;3.716;2022-12-11T01:49:36;-1.50;72.80
71733;DHT22;65965;43.502;3.716;2022-12-11T01:52:14;-1.30;70.30
71733;DHT22;65965;43.502;3.716;2022-12-11T01:54:41;-1.20;71.70
71733;DHT22;65965;43.502;3.716;2022-12-11T01:57:08;-1.40;72.20
71733;DHT22;65965;43.502;3.716;2022-12-11T01:59:38;-1.30;72.80
71733;DHT22;65965;43.502;3.716;2022-12-11T02:02:09;-1.20;72.00
71733;DHT22;65965;43.502;3.716;2022-12-11T02:04:38;-1.50;72.60
71733;DHT22;65965;43.502;3.716;2022-12-11T02:07:04;-1.20;72.10
71733;DHT22;65965;43.502;3.716;2022-12-11T02:09:33;-1.20;73.90
71733;DHT22;65965;43.502;3.716;2022-12-11T02:12:00;-1.30;73.00
71733;DHT22;65965;43.502;3.716;2022-12-11T02:17:46;-1.70;75.60
71733;DHT22;65965;43.502;3.716;2022-12-11T02:28:37;-2.10;78.50
71733;DHT22;65965;43.502;3.716;2022-12-11T02:30:39;-1.50;71.50
71733;DHT22;65965;43.502;3.716;2022-12-11T02:33:08;-1.70;75.40
71733;DHT22;65965;43.502;3.716;2022-12-11T02:35:40;-1.80;75.10
71733;DHT22;65965;43.502;3.716;2022-12-11T02:38:32;-1.90;74.80
71733;DHT22;65965;43.502;3.716;2022-12-11T02:41:00;-1.80;72.50
71733;DHT22;65965;43.502;3.716;2022-12-11T02:43:30;-1.70;73.90
71733;DHT22;65965;43.502;3.716;2022-12-11T02:45:58;-1.80;73.80
71733;DHT22;65965;43.502;3.716;2022-12-11T02:48:23;-1.90;77.10
71733;DHT22;65965;43.502;3.716;2022-12-11T02:50:52;-2.00;74.00
71733;DHT22;65965;43.502;3.716;2022-12-11T02:53:23;-2.30;76.30
71733;DHT22;65965;43.502;3.716;2022-12-11T02:55:53;-2.10;76.40
71733;DHT22;65965;43.502;3.716;2022-12-11T02:58:25;-2.10;75.90
71733;DHT22;65965;43.502;3.716;2022-12-11T03:00:51;-2.10;78.20
71733;DHT22;65965;43.502;3.716;2022-12-11T03:03:17;-1.90;75.80
71733;DHT22;65965;43.502;3.716;2022-12-11T03:05:43;-1.70;73.00
71733;DHT22;65965;43.502;3.716;2022-12-11T03:08:10;-1.60;75.20
71733;DHT22;65965;43.502;3.716;2022-12-11T03:10:36;-1.70;73.30
71733;DHT22;65965;43.502;3.716;2022-12-11T03:13:03;-2.00;75.40
71733;DHT22;65965;43.502;3.716;2022-12-11T03:15:40;-1.70;77.10
71733;DHT22;65965;43.502;3.716;2022-12-11T03:18:47;-1.90;73.40
71733;DHT22;65965;43.502;3.716;2022-12-11T03:21:26;-2.40;76.40
71733;DHT22;65965;43.502;3.716;2022-12-11T03:26:53;-2.70;80.30
71733;DHT22;65965;43.502;3.716;2022-12-11T03:29:27;-2.50;78.90
71733;DHT22;65965;43.502;3.716;2022-12-11T03:31:57;-2.10;75.20
71733;DHT22;65965;43.502;3.716;2022-12-11T03:34:30;-2.40;77.50
71733;DHT22;65965;43.502;3.716;2022-12-11T03:36:59;-2.70;79.10
71733;DHT22;65965;43.502;3.716;2022-12-11T03:39:33;-3.00;80.50
71733;DHT22;65965;43.502;3.716;2022-12-11T03:42:02;-3.20;81.50
71733;DHT22;65965;43.502;3.716;2022-12-11T03:44:30;-2.90;83.10
71733;DHT22;65965;43.502;3.716;2022-12-11T03:46:57;-2.90;81.80
71733;DHT22;65965;43.502;3.716;2022-12-11T03:49:26;-3.00;80.40
71733;DHT22;65965;43.502;3.716;2022-12-11T03:51:55;-2.90;80.00
71733;DHT22;65965;43.502;3.716;2022-12-11T03:54:22;-2.80;79.50
71733;DHT22;65965;43.502;3.716;2022-12-11T03:56:50;-2.80;81.30
71733;DHT22;65965;43.502;3.716;2022-12-11T03:59:18;-3.00;81.10
71733;DHT22;65965;43.502;3.716;2022-12-11T04:01:43;-3.20;79.90
71733;DHT22;65965;43.502;3.716;2022-12-11T04:04:09;-3.30;82.50
71733;DHT22;65965;43.502;3.716;2022-12-11T04:06:35;-3.40;82.40
71733;DHT22;65965;43.502;3.716;2022-12-11T04:09:00;-3.20;79.30
71733;DHT22;65965;43.502;3.716;2022-12-11T04:11:26;-3.10;79.40
71733;DHT22;65965;43.502;3.716;2022-12-11T04:14:09;-3.10;78.20
71733;DHT22;65965;43.502;3.716;2022-12-11T04:16:54;-3.10;80.30
71733;DHT22;65965;43.502;3.716;2022-12-11T04:19:21;-3.00;79.50
71733;DHT22;65965;43.502;3.716;2022-12-11T04:22:05;-3.20;79.90
71733;DHT22;65965;43.502;3.716;2022-12-11T04:24:49;-3.40;81.20
71733;DHT22;65965;43.502;3.716;2022-12-11T04:27:16;-3.40;82.20
71733;DHT22;65965;43.502;3.716;2022-12-11T04:30:05;-3.50;82.30
71733;DHT22;65965;43.502;3.716;2022-12-11T04:32:31;-3.50;81.80
71733;DHT22;65965;43.502;3.716;2022-12-11T04:34:57;-3.60;82.70
71733;DHT22;65965;43.502;3.716;2022-12-11T04:37:22;-3.70;83.80
71733;DHT22;65965;43.502;3.716;2022-12-11T04:39:48;-3.60;82.60
71733;DHT22;65965;43.502;3.716;2022-12-11T04:42:14;-3.70;82.50
71733;DHT22;65965;43.502;3.716;2022-12-11T04:44:40;-3.80;83.40
71733;DHT22;65965;43.502;3.716;2022-12-11T04:47:05;-3.60;81.50
71733;DHT22;65965;43.502;3.716;2022-12-11T04:49:31;-3.60;81.90
71733;DHT22;65965;43.502;3.716;2022-12-11T04:51:57;-3.60;80.80
71733;DHT22;65965;43.502;3.716;2022-12-11T04:54:22;-3.70;81.00
71733;DHT22;65965;43.502;3.716;2022-12-11T04:56:48;-4.00;82.60
71733;DHT22;65965;43.502;3.716;2022-12-11T04:59:14;-3.80;83.80
71733;DHT22;65965;43.502;3.716;2022-12-11T05:01:39;-3.80;83.10
71733;DHT22;65965;43.502;3.716;2022-12-11T05:04:05;-3.90;84.10
71733;DHT22;65965;43.502;3.716;2022-12-11T05:06:31;-3.90;84.40
71733;DHT22;65965;43.502;3.716;2022-12-11T05:08:57;-4.10;84.40
71733;DHT22;65965;43.502;3.716;2022-12-11T05:11:22;-4.20;85.20
71733;DHT22;65965;43.502;3.716;2022-12-11T05:13:48;-4.30;84.90
71733;DHT22;65965;43.502;3.716;2022-12-11T05:16:15;-3.80;85.10
71733;DHT22;65965;43.502;3.716;2022-12-11T05:18:41;-4.00;83.40
71733;DHT22;65965;43.502;3.716;2022-12-11T05:21:10;-4.10;84.50
71733;DHT22;65965;43.502;3.716;2022-12-11T05:23:38;-4.10;85.60
71733;DHT22;65965;43.502;3.716;2022-12-11T05:26:08;-4.20;85.00
71733;DHT22;65965;43.502;3.716;2022-12-11T05:28:39;-4.00;84.40
71733;DHT22;65965;43.502;3.716;2022-12-11T05:31:08;-4.10;84.90
71733;DHT22;65965;43.502;3.716;2022-12-11T05:33:35;-4.30;84.70
71733;DHT22;65965;43.502;3.716;2022-12-11T05:36:01;-4.40;85.70
71733;DHT22;65965;43.502;3.716;2022-12-11T05:38:27;-4.50;85.70
71733;DHT22;65965;43.502;3.716;2022-12-11T05:40:58;-4.40;86.40
71733;DHT22;65965;43.502;3.716;2022-12-11T05:43:25;-4.50;86.10
71733;DHT22;65965;43.502;3.716;2022-12-11T05:45:51;-4.60;86.40
71733;DHT22;65965;43.502;3.716;2022-12-11T05:48:17;-4.60;86.70
71733;DHT22;65965;43.502;3.716;2022-12-11T05:50:43;-4.50;86.60
71733;DHT22;65965;43.502;3.716;2022-12-11T05:53:09;-4.40;86.80
71733;DHT22;65965;43.502;3.716;2022-12-11T05:55:34;-4.50;86.50
71733;DHT22;65965;43.502;3.716;2022-12-11T05:58:00;-4.50;86.50
71733;DHT22;65965;43.502;3.716;2022-12-11T06:00:26;-4.50;86.40
71733;DHT22;65965;43.502;3.716;2022-12-11T06:02:51;-4.70;85.70
71733;DHT22;65965;43.502;3.716;2022-12-11T06:05:17;-4.60;86.70
71733;DHT22;65965;43.502;3.716;2022-12-11T06:07:43;-4.30;86.40
71733;DHT22;65965;43.502;3.716;2022-12-11T06:10:09;-4.20;84.60
71733;DHT22;65965;43.502;3.716;2022-12-11T06:12:35;-4.50;84.00
71733;DHT22;65965;43.502;3.716;2022-12-11T06:15:00;-4.50;84.90
71733;DHT22;65965;43.502;3.716;2022-12-11T06:17:26;-4.60;84.90
71733;DHT22;65965;43.502;3.716;2022-12-11T06:19:52;-4.50;85.70
71733;DHT22;65965;43.502;3.716;2022-12-11T06:22:17;-4.50;85.40
71733;DHT22;65965;43.502;3.716;2022-12-11T06:24:43;-4.60;85.50
71733;DHT22;65965;43.502;3.716;2022-12-11T06:27:09;-4.70;86.20
71733;DHT22;65965;43.502;3.716;2022-12-11T06:29:34;-4.70;86.50
71733;DHT22;65965;43.502;3.716;2022-12-11T06:32:00;-4.80;86.40
71733;DHT22;65965;43.502;3.716;2022-12-11T06:34:26;-4.80;87.00
71733;DHT22;65965;43.502;3.716;2022-12-11T06:36:52;-4.90;87.30
71733;DHT22;65965;43.502;3.716;2022-12-11T06:39:17;-5.00;87.60
71733;DHT22;65965;43.502;3.716;2022-12-11T06:41:43;-5.00;87.90
71733;DHT22;65965;43.502;3.716;2022-12-11T06:44:09;-4.90;88.30
71733;DHT22;65965;43.502;3.716;2022-12-11T06:46:34;-5.00;88.10
71733;DHT22;65965;43.502;3.716;2022-12-11T06:49:00;-5.00;88.40
71733;DHT22;65965;43.502;3.716;2022-12-11T06:51:26;-5.20;88.40
71733;DHT22;65965;43.502;3.716;2022-12-11T06:53:53;-5.10;88.90
71733;DHT22;65965;43.502;3.716;2022-12-11T06:56:19;-5.10;89.00
71733;DHT22;65965;43.502;3.716;2022-12-11T06:58:45;-5.30;88.80
71733;DHT22;65965;43.502;3.716;2022-12-11T07:01:23;-5.30;89.00
71733;DHT22;65965;43.502;3.716;2022-12-11T07:03:52;-5.20;89.30
71733;DHT22;65965;43.502;3.716;2022-12-11T07:06:17;-5.10;89.10
71733;DHT22;65965;43.502;3.716;2022-12-11T07:08:43;-5.20;88.70
71733;DHT22;65965;43.502;3.716;2022-12-11T07:11:12;-5.30;88.40
71733;DHT22;65965;43.502;3.716;2022-12-11T07:13:39;-5.10;88.70
71733;DHT22;65965;43.502;3.716;2022-12-11T07:16:06;-5.00;87.80
71733;DHT22;65965;43.502;3.716;2022-12-11T07:18:36;-4.80;88.00
71733;DHT22;65965;43.502;3.716;2022-12-11T07:21:03;-4.80;87.60
71733;DHT22;65965;43.502;3.716;2022-12-11T07:23:29;-4.90;87.10
71733;DHT22;65965;43.502;3.716;2022-12-11T07:25:55;-4.90;87.10
71733;DHT22;65965;43.502;3.716;2022-12-11T07:28:22;-4.70;87.80
71733;DHT22;65965;43.502;3.716;2022-12-11T07:30:48;-4.60;87.70
71733;DHT22;65965;43.502;3.716;2022-12-11T07:33:16;-4.60;87.10
71733;DHT22;65965;43.502;3.716;2022-12-11T07:35:42;-4.60;87.00
71733;DHT22;65965;43.502;3.716;2022-12-11T07:38:07;-4.50;86.90
71733;DHT22;65965;43.502;3.716;2022-12-11T07:40:33;-4.30;86.60
71733;DHT22;65965;43.502;3.716;2022-12-11T07:42:59;-4.20;85.80
71733;DHT22;65965;43.502;3.716;2022-12-11T07:45:24;-4.10;86.40
71733;DHT22;65965;43.502;3.716;2022-12-11T07:47:51;-4.00;85.40
71733;DHT22;65965;43.502;3.716;2022-12-11T07:50:17;-3.90;84.80
71733;DHT22;65965;43.502;3.716;2022-12-11T07:52:43;-3.80;83.30
71733;DHT22;65965;43.502;3.716;2022-12-11T07:55:09;-3.70;83.60
71733;DHT22;65965;43.502;3.716;2022-12-11T07:57:35;-3.60;82.90
71733;DHT22;65965;43.502;3.716;2022-12-11T08:00:01;-3.40;82.90
71733;DHT22;65965;43.502;3.716;2022-12-11T08:02:27;-3.20;83.10
71733;DHT22;65965;43.502;3.716;2022-12-11T08:04:53;-3.00;82.90
71733;DHT22;65965;43.502;3.716;2022-12-11T08:07:19;-2.90;81.80
71733;DHT22;65965;43.502;3.716;2022-12-11T08:09:44;-2.70;80.70
71733;DHT22;65965;43.502;3.716;2022-12-11T08:12:10;-2.70;79.70
71733;DHT22;65965;43.502;3.716;2022-12-11T08:14:37;-2.50;78.10
71733;DHT22;65965;43.502;3.716;2022-12-11T08:17:02;-2.20;79.70
71733;DHT22;65965;43.502;3.716;2022-12-11T08:19:28;-2.10;78.10
71733;DHT22;65965;43.502;3.716;2022-12-11T08:21:54;-2.00;78.00
71733;DHT22;65965;43.502;3.716;2022-12-11T08:24:19;-1.90;78.20
71733;DHT22;65965;43.502;3.716;2022-12-11T08:26:46;-1.70;77.20
71733;DHT22;65965;43.502;3.716;2022-12-11T08:29:12;-1.60;75.50
71733;DHT22;65965;43.502;3.716;2022-12-11T08:31:39;-1.50;75.60
71733;DHT22;65965;43.502;3.716;2022-12-11T08:34:05;-1.40;74.90
71733;DHT22;65965;43.502;3.716;2022-12-11T08:36:30;-1.30;76.00
71733;DHT22;65965;43.502;3.716;2022-12-11T08:38:56;-1.00;76.20
71733;DHT22;65965;43.502;3.716;2022-12-11T08:41:25;-0.90;75.00
71733;DHT22;65965;43.502;3.716;2022-12-11T08:43:53;-0.70;74.30
71733;DHT22;65965;43.502;3.716;2022-12-11T08:46:27;-0.50;74.10
71733;DHT22;65965;43.502;3.716;2022-12-11T08:48:53;-0.30;71.80
71733;DHT22;65965;43.502;3.716;2022-12-11T08:51:21;-0.10;70.80
71733;DHT22;65965;43.502;3.716;2022-12-11T08:53:48;0.20;69.20
71733;DHT22;65965;43.502;3.716;2022-12-11T08:56:17;0.40;69.70
71733;DHT22;65965;43.502;3.716;2022-12-11T08:58:44;0.70;69.00
71733;DHT22;65965;43.502;3.716;2022-12-11T09:01:13;1.00;67.20
71733;DHT22;65965;43.502;3.716;2022-12-11T09:03:40;1.10;66.30
71733;DHT22;65965;43.502;3.716;2022-12-11T09:06:08;1.40;67.00
71733;DHT22;65965;43.502;3.716;2022-12-11T09:08:35;1.70;66.20
71733;DHT22;65965;43.502;3.716;2022-12-11T09:11:08;1.90;63.80
71733;DHT22;65965;43.502;3.716;2022-12-11T09:13:35;2.10;63.40
71733;DHT22;65965;43.502;3.716;2022-12-11T09:16:07;2.60;62.90
71733;DHT22;65965;43.502;3.716;2022-12-11T09:18:34;3.30;61.20
71733;DHT22;65965;43.502;3.716;2022-12-11T09:21:10;3.40;60.60
71733;DHT22;65965;43.502;3.716;2022-12-11T09:23:38;3.50;60.80
71733;DHT22;65965;43.502;3.716;2022-12-11T09:26:06;3.30;60.10
71733;DHT22;65965;43.502;3.716;2022-12-11T09:28:33;3.20;60.80
71733;DHT22;65965;43.502;3.716;2022-12-11T09:30:59;3.00;60.30
71733;DHT22;65965;43.502;3.716;2022-12-11T09:33:24;2.90;61.80
71733;DHT22;65965;43.502;3.716;2022-12-11T09:36:00;3.20;61.40
71733;DHT22;65965;43.502;3.716;2022-12-11T09:38:27;3.10;61.50
71733;DHT22;65965;43.502;3.716;2022-12-11T09:40:54;3.20;58.70
71733;DHT22;65965;43.502;3.716;2022-12-11T09:43:45;3.20;59.40
71733;DHT22;65965;43.502;3.716;2022-12-11T09:46:14;2.80;60.40
71733;DHT22;65965;43.502;3.716;2022-12-11T09:48:48;2.90;61.70
71733;DHT22;65965;43.502;3.716;2022-12-11T09:51:33;2.90;59.60
71733;DHT22;65965;43.502;3.716;2022-12-11T09:54:02;2.90;60.80
71733;DHT22;65965;43.502;3.716;2022-12-11T10:01:54;3.40;58.80
71733;DHT22;65965;43.502;3.716;2022-12-11T10:07:19;3.70;57.10
71733;DHT22;65965;43.502;3.716;2022-12-11T10:09:55;3.90;56.60
71733;DHT22;65965;43.502;3.716;2022-12-11T10:17:50;4.80;52.20
71733;DHT22;65965;43.502;3.716;2022-12-11T10:22:49;4.50;53.40
71733;DHT22;65965;43.502;3.716;2022-12-11T10:25:23;4.60;50.90
71733;DHT22;65965;43.502;3.716;2022-12-11T10:27:51;5.00;48.40
71733;DHT22;65965;43.502;3.716;2022-12-11T10:32:52;7.00;51.90
71733;DHT22;65965;43.502;3.716;2022-12-11T10:40:52;8.20;42.20
71733;DHT22;65965;43.502;3.716;2022-12-11T10:43:19;7.70;43.70
71733;DHT22;65965;43.502;3.716;2022-12-11T10:45:52;8.40;43.50
71733;DHT22;65965;43.502;3.716;2022-12-11T10:48:18;9.30;41.70
71733;DHT22;65965;43.502;3.716;2022-12-11T10:51:00;11.50;41.70
71733;DHT22;65965;43.502;3.716;2022-12-11T10:53:26;13.40;37.20
71733;DHT22;65965;43.502;3.716;2022-12-11T10:55:52;13.40;35.80
71733;DHT22;65965;43.502;3.716;2022-12-11T10:58:23;13.90;34.00
71733;DHT22;65965;43.502;3.716;2022-12-11T11:03:28;13.00;33.90
71733;DHT22;65965;43.502;3.716;2022-12-11T11:06:18;13.80;34.20
71733;DHT22;65965;43.502;3.716;2022-12-11T11:08:47;14.20;31.20
71733;DHT22;65965;43.502;3.716;2022-12-11T11:11:24;12.80;33.10
71733;DHT22;65965;43.502;3.716;2022-12-11T11:13:50;12.60;32.70
71733;DHT22;65965;43.502;3.716;2022-12-11T11:16:18;13.60;34.10
71733;DHT22;65965;43.502;3.716;2022-12-11T11:18:53;14.80;30.10
71733;DHT22;65965;43.502;3.716;2022-12-11T11:21:22;16.00;29.10
71733;DHT22;65965;43.502;3.716;2022-12-11T11:23:49;15.80;31.40
71733;DHT22;65965;43.502;3.716;2022-12-11T11:26:16;16.40;32.30
71733;DHT22;65965;43.502;3.716;2022-12-11T11:28:53;15.70;27.70
71733;DHT22;65965;43.502;3.716;2022-12-11T11:31:29;14.50;29.70
71733;DHT22;65965;43.502;3.716;2022-12-11T11:33:58;15.30;27.50
71733;DHT22;65965;43.502;3.716;2022-12-11T11:36:27;15.60;29.30
71733;DHT22;65965;43.502;3.716;2022-12-11T11:42:05;12.60;30.30
71733;DHT22;65965;43.502;3.716;2022-12-11T11:44:39;11.60;34.90
71733;DHT22;65965;43.502;3.716;2022-12-11T11:47:20;13.20;31.60
71733;DHT22;65965;43.502;3.716;2022-12-11T11:54:57;14.20;31.00
71733;DHT22;65965;43.502;3.716;2022-12-11T11:57:52;18.30;27.30
71733;DHT22;65965;43.502;3.716;2022-12-11T12:00:22;14.70;27.90
71733;DHT22;65965;43.502;3.716;2022-12-11T12:02:55;9.10;33.20
71733;DHT22;65965;43.502;3.716;2022-12-11T12:05:36;9.90;35.50
71733;DHT22;65965;43.502;3.716;2022-12-11T12:11:06;9.70;34.10
71733;DHT22;65965;43.502;3.716;2022-12-11T12:13:54;9.30;35.90
71733;DHT22;65965;43.502;3.716;2022-12-11T12:21:43;10.60;36.30
71733;DHT22;65965;43.502;3.716;2022-12-11T12:26:58;13.60;30.60
71733;DHT22;65965;43.502;3.716;2022-12-11T12:29:51;16.20;30.40
71733;DHT22;65965;43.502;3.716;2022-12-11T12:38:09;17.40;28.40
71733;DHT22;65965;43.502;3.716;2022-12-11T12:41:02;18.90;27.90
71733;DHT22;65965;43.502;3.716;2022-12-11T12:49:11;19.60;24.20
71733;DHT22;65965;43.502;3.716;2022-12-11T12:51:39;18.20;23.30
71733;DHT22;65965;43.502;3.716;2022-12-11T12:54:06;17.80;25.00
71733;DHT22;65965;43.502;3.716;2022-12-11T12:56:32;16.60;25.20
71733;DHT22;65965;43.502;3.716;2022-12-11T12:58:58;15.70;25.80
71733;DHT22;65965;43.502;3.716;2022-12-11T13:01:25;15.40;26.70
71733;DHT22;65965;43.502;3.716;2022-12-11T13:04:05;16.60;24.60
71733;DHT22;65965;43.502;3.716;2022-12-11T13:06:45;16.30;26.30
71733;DHT22;65965;43.502;3.716;2022-12-11T13:11:44;15.70;26.20
71733;DHT22;65965;43.502;3.716;2022-12-11T13:16:44;14.60;27.80
71733;DHT22;65965;43.502;3.716;2022-12-11T13:24:28;15.80;26.20
71733;DHT22;65965;43.502;3.716;2022-12-11T13:26:54;14.20;26.70
71733;DHT22;65965;43.502;3.716;2022-12-11T13:29:31;12.10;28.20
71733;DHT22;65965;43.502;3.716;2022-12-11T13:34:35;14.10;30.10
71733;DHT22;65965;43.502;3.716;2022-12-11T13:37:03;11.80;29.30
71733;DHT22;65965;43.502;3.716;2022-12-11T13:39:31;12.10;30.40
71733;DHT22;65965;43.502;3.716;2022-12-11T13:42:05;11.60;30.90
71733;DHT22;65965;43.502;3.716;2022-12-11T13:44:38;10.60;32.90
71733;DHT22;65965;43.502;3.716;2022-12-11T13:47:09;11.00;32.50
71733;DHT22;65965;43.502;3.716;2022-12-11T13:49:37;11.60;31.50
71733;DHT22;65965;43.502;3.716;2022-12-11T13:52:05;11.40;32.00
71733;DHT22;65965;43.502;3.716;2022-12-11T13:54:34;11.30;31.20
71733;DHT22;65965;43.502;3.716;2022-12-11T13:57:14;10.90;31.80
71733;DHT22;65965;43.502;3.716;2022-12-11T13:59:56;10.10;34.50
71733;DHT22;65965;43.502;3.716;2022-12-11T14:02:36;9.80;33.70
71733;DHT22;65965;43.502;3.716;2022-12-11T14:05:08;10.10;32.30
71733;DHT22;65965;43.502;3.716;2022-12-11T14:07:41;11.00;33.80
71733;DHT22;65965;43.502;3.716;2022-12-11T14:12:47;11.50;31.20
71733;DHT22;65965;43.502;3.716;2022-12-11T14:15:15;11.10;31.90
71733;DHT22;65965;43.502;3.716;2022-12-11T14:17:42;10.00;33.10
71733;DHT22;65965;43.502;3.716;2022-12-11T14:20:20;11.00;33.30
71733;DHT22;65965;43.502;3.716;2022-12-11T14:22:47;11.10;33.20
71733;DHT22;65965;43.502;3.716;2022-12-11T14:25:26;9.40;33.90
71733;DHT22;65965;43.502;3.716;2022-12-11T14:27:54;8.50;35.20
71733;DHT22;65965;43.502;3.716;2022-12-11T14:30:26;8.20;39.40
71733;DHT22;65965;43.502;3.716;2022-12-11T14:33:01;8.50;36.60
71733;DHT22;65965;43.502;3.716;2022-12-11T14:35:31;9.20;35.20
71733;DHT22;65965;43.502;3.716;2022-12-11T14:38:00;9.20;34.40
71733;DHT22;65965;43.502;3.716;2022-12-11T14:40:32;8.70;37.50
71733;DHT22;65965;43.502;3.716;2022-12-11T14:43:19;8.00;38.90
71733;DHT22;65965;43.502;3.716;2022-12-11T14:45:47;7.70;37.50
71733;DHT22;65965;43.502;3.716;2022-12-11T14:48:22;7.30;40.10
71733;DHT22;65965;43.502;3.716;2022-12-11T14:50:55;7.00;41.60
71733;DHT22;65965;43.502;3.716;2022-12-11T14:55:50;7.00;43.50
71733;DHT22;65965;43.502;3.716;2022-12-11T14:58:20;6.80;41.60
71733;DHT22;65965;43.502;3.716;2022-12-11T15:01:02;6.80;41.90
71733;DHT22;65965;43.502;3.716;2022-12-11T15:03:33;6.70;44.90
71733;DHT22;65965;43.502;3.716;2022-12-11T15:06:00;6.70;41.30
71733;DHT22;65965;43.502;3.716;2022-12-11T15:13:27;5.90;47.90
71733;DHT22;65965;43.502;3.716;2022-12-11T15:15:54;5.60;48.10
71733;DHT22;65965;43.502;3.716;2022-12-11T15:18:23;5.40;44.10
71733;DHT22;65965;43.502;3.716;2022-12-11T15:20:57;5.30;48.30
71733;DHT22;65965;43.502;3.716;2022-12-11T15:23:24;5.00;52.50
71733;DHT22;65965;43.502;3.716;2022-12-11T15:25:54;4.60;52.00
71733;DHT22;65965;43.502;3.716;2022-12-11T15:28:32;4.40;49.60
71733;DHT22;65965;43.502;3.716;2022-12-11T15:31:24;4.10;55.80
71733;DHT22;65965;43.502;3.716;2022-12-11T15:33:49;3.90;53.80
71733;DHT22;65965;43.502;3.716;2022-12-11T15:36:24;3.80;57.30
71733;DHT22;65965;43.502;3.716;2022-12-11T15:38:50;3.50;58.20
71733;DHT22;65965;43.502;3.716;2022-12-11T15:41:18;3.30;59.80
71733;DHT22;65965;43.502;3.716;2022-12-11T15:43:50;3.10;61.30
71733;DHT22;65965;43.502;3.716;2022-12-11T15:46:16;2.90;60.60
71733;DHT22;65965;43.502;3.716;2022-12-11T15:48:42;2.70;62.20
71733;DHT22;65965;43.502;3.716;2022-12-11T15:51:08;2.40;62.50
71733;DHT22;65965;43.502;3.716;2022-12-11T15:53:34;2.30;65.30
71733;DHT22;65965;43.502;3.716;2022-12-11T15:56:00;2.10;63.80
71733;DHT22;65965;43.502;3.716;2022-12-11T15:58:26;2.00;66.10
71733;DHT22;65965;43.502;3.716;2022-12-11T16:00:52;1.80;65.50
71733;DHT22;65965;43.502;3.716;2022-12-11T16:03:20;1.60;65.30
71733;DHT22;65965;43.502;3.716;2022-12-11T16:05:48;1.50;64.30
71733;DHT22;65965;43.502;3.716;2022-12-11T16:08:16;1.50;67.70
71733;DHT22;65965;43.502;3.716;2022-12-11T16:10:43;1.30;68.90
71733;DHT22;65965;43.502;3.716;2022-12-11T16:13:10;1.10;68.80
71733;DHT22;65965;43.502;3.716;2022-12-11T16:15:41;1.00;69.10
71733;DHT22;65965;43.502;3.716;2022-12-11T16:18:09;0.80;67.40
71733;DHT22;65965;43.502;3.716;2022-12-11T16:20:36;0.70;69.20
71733;DHT22;65965;43.502;3.716;2022-12-11T16:23:03;0.60;70.20
71733;DHT22;65965;43.502;3.716;2022-12-11T16:25:29;0.40;69.50
71733;DHT22;65965;43.502;3.716;2022-12-11T16:27:58;0.30;71.00
71733;DHT22;65965;43.502;3.716;2022-12-11T16:30:24;0.10;70.30
71733;DHT22;65965;43.502;3.716;2022-12-11T16:32:50;0.00;69.80
71733;DHT22;65965;43.502;3.716;2022-12-11T16:35:16;-0.20;71.20
71733;DHT22;65965;43.502;3.716;2022-12-11T16:37:43;-0.30;71.20
71733;DHT22;65965;43.502;3.716;2022-12-11T16:40:09;-0.30;73.30
71733;DHT22;65965;43.502;3.716;2022-12-11T16:42:37;-0.30;72.60
71733;DHT22;65965;43.502;3.716;2022-12-11T16:45:09;-0.40;73.00
71733;DHT22;65965;43.502;3.716;2022-12-11T16:47:36;-0.50;73.20
71733;DHT22;65965;43.502;3.716;2022-12-11T16:50:02;-0.60;73.50
71733;DHT22;65965;43.502;3.716;2022-12-11T16:52:28;-0.60;71.40
71733;DHT22;65965;43.502;3.716;2022-12-11T16:54:53;-0.60;75.00
71733;DHT22;65965;43.502;3.716;2022-12-11T16:57:21;-0.60;73.00
71733;DHT22;65965;43.502;3.716;2022-12-11T16:59:46;-0.70;74.10
71733;DHT22;65965;43.502;3.716;2022-12-11T17:02:12;-0.80;73.80
71733;DHT22;65965;43.502;3.716;2022-12-11T17:18:55;-0.50;71.70
71733;DHT22;65965;43.502;3.716;2022-12-11T17:21:21;-1.20;76.70
71733;DHT22;65965;43.502;3.716;2022-12-11T17:23:48;-1.30;75.90
71733;DHT22;65965;43.502;3.716;2022-12-11T17:26:15;-1.40;76.10
71733;DHT22;65965;43.502;3.716;2022-12-11T17:28:41;-1.40;76.20
71733;DHT22;65965;43.502;3.716;2022-12-11T17:31:11;-1.50;76.10
71733;DHT22;65965;43.502;3.716;2022-12-11T17:33:37;-1.50;75.40
71733;DHT22;65965;43.502;3.716;2022-12-11T17:36:04;-1.50;76.20
71733;DHT22;65965;43.502;3.716;2022-12-11T17:38:31;-1.60;77.90